KADS/ADS METAR and TAF weather

Enter ICAO airport designator
Station Type Date Time Source
KADS METAR 2019/04/19 21:47 UTC NOAA

KADS 192147Z 32015G25KT 10SM SKC 19/02 A3005


Station Type Date Time Source
KADS Decoded METAR 2019/04/19 21:47 UTC NOAA

Dallas / Addison Airport, TX, United States (KADS) 32-58N 096-50W
Apr 19, 2019 - 05:47 PM EDT / 2019.04.19 2147 UTC
Wind: from the NW (320 degrees) at 17 MPH (15 KT) gusting to 29 MPH (25 KT):0
Visibility: 10 mile(s):0
Sky conditions: clear
Temperature: 66 F (19 C)
Dew Point: 35 F (2 C)
Relative Humidity: 32%
Pressure (altimeter): 30.05 in. Hg (1017 hPa)
ob: KADS 192147Z 32015G25KT 10SM SKC 19/02 A3005
cycle: 22

Station Type Date Time Source
KADS TAF UTC NOAA

Error!

Example: see airport list